createdAt,value
2018-05-18T00:01:14.028Z,21.01
2018-05-18T00:03:39.832Z,21.00
2018-05-18T00:06:05.638Z,20.95
2018-05-18T00:08:31.473Z,20.97
2018-05-18T00:10:58.089Z,21.00
2018-05-18T00:13:23.893Z,20.99
2018-05-18T00:15:49.688Z,20.93
2018-05-18T00:18:15.481Z,20.95
2018-05-18T00:20:41.320Z,20.95
2018-05-18T00:23:07.117Z,20.93
2018-05-18T00:25:33.737Z,20.93
2018-05-18T00:28:00.452Z,20.93
2018-05-18T00:30:26.291Z,21.00
2018-05-18T00:32:52.088Z,21.01
2018-05-18T00:35:18.904Z,21.06
2018-05-18T00:37:45.649Z,20.99
2018-05-18T00:40:11.446Z,20.89
2018-05-18T00:42:37.288Z,20.95
2018-05-18T00:45:03.092Z,20.94
2018-05-18T00:47:28.915Z,21.02
2018-05-18T00:49:54.716Z,21.00
2018-05-18T00:52:20.522Z,20.98
2018-05-18T00:54:46.324Z,20.96
2018-05-18T00:57:12.123Z,20.92
2018-05-18T00:59:37.969Z,20.97
2018-05-18T01:02:03.772Z,20.88
2018-05-18T01:04:29.609Z,20.90
2018-05-18T01:06:55.433Z,21.04
2018-05-18T01:09:22.133Z,20.95
2018-05-18T01:11:47.933Z,20.92
2018-05-18T01:14:13.740Z,20.87
2018-05-18T01:16:39.536Z,20.92
2018-05-18T01:19:05.369Z,20.89
2018-05-18T01:21:31.177Z,20.85
2018-05-18T01:23:56.973Z,20.87
2018-05-18T01:26:22.776Z,20.88
2018-05-18T01:28:48.580Z,20.85
2018-05-18T01:31:14.380Z,20.87
2018-05-18T01:33:40.220Z,20.91
2018-05-18T01:36:06.024Z,20.85
2018-05-18T01:38:32.684Z,20.89
2018-05-18T01:40:58.480Z,20.89
2018-05-18T01:43:24.280Z,20.89
2018-05-18T01:45:50.084Z,20.91
2018-05-18T01:48:15.881Z,20.92
2018-05-18T01:50:41.683Z,20.90
2018-05-18T01:53:07.520Z,20.82
2018-05-18T01:55:33.356Z,20.84
2018-05-18T01:58:00.013Z,20.83
2018-05-18T02:00:25.867Z,20.86
2018-05-18T02:02:51.680Z,20.84
2018-05-18T02:05:17.488Z,20.79
2018-05-18T02:07:44.232Z,20.87
2018-05-18T02:10:10.033Z,20.79
2018-05-18T02:12:35.828Z,20.87
2018-05-18T02:15:01.672Z,20.84
2018-05-18T02:17:27.473Z,20.82
2018-05-18T02:19:53.313Z,20.86
2018-05-18T02:22:19.933Z,20.81
2018-05-18T02:24:46.781Z,20.77
2018-05-18T02:27:12.580Z,20.80
2018-05-18T02:29:38.375Z,20.77
2018-05-18T02:32:04.167Z,20.74
2018-05-18T02:34:29.968Z,20.81
2018-05-18T02:36:55.776Z,20.70
2018-05-18T02:39:22.573Z,20.66
2018-05-18T02:41:48.413Z,20.70
2018-05-18T02:44:14.267Z,20.70
2018-05-18T02:46:40.119Z,20.72
2018-05-18T02:49:05.920Z,20.69
2018-05-18T02:51:31.720Z,20.63
2018-05-18T02:53:57.520Z,20.68
2018-05-18T02:56:23.317Z,20.66
2018-05-18T02:58:49.115Z,20.63
2018-05-18T03:01:14.924Z,20.71
2018-05-18T03:03:40.728Z,20.75
2018-05-18T03:06:07.336Z,20.69
2018-05-18T03:08:33.174Z,20.72
2018-05-18T03:10:58.974Z,20.78
2018-05-18T03:13:24.825Z,20.84
2018-05-18T03:15:51.452Z,20.75
2018-05-18T03:18:17.293Z,20.67
2018-05-18T03:20:43.932Z,20.69
2018-05-18T03:23:10.672Z,20.59
2018-05-18T03:25:36.467Z,20.64
2018-05-18T03:28:02.259Z,20.60
2018-05-18T03:30:28.948Z,20.69
2018-05-18T03:32:54.744Z,20.72
2018-05-18T03:35:20.544Z,20.70
2018-05-18T03:37:46.349Z,20.65
2018-05-18T03:40:12.184Z,20.67
2018-05-18T03:42:37.988Z,20.60
2018-05-18T03:45:03.791Z,20.61
2018-05-18T03:47:29.591Z,20.58
2018-05-18T03:49:55.390Z,20.65
2018-05-18T03:52:21.188Z,20.68
2018-05-18T03:54:46.984Z,20.64
2018-05-18T03:57:12.836Z,20.63
2018-05-18T03:59:38.636Z,20.67
2018-05-18T04:02:10.560Z,20.65
2018-05-18T04:04:42.605Z,20.67
2018-05-18T04:07:14.593Z,20.64
2018-05-18T04:09:40.397Z,20.77
2018-05-18T04:12:06.197Z,20.79
2018-05-18T04:14:31.996Z,20.65
2018-05-18T04:16:57.800Z,20.58
2018-05-18T04:19:23.609Z,20.61
2018-05-18T04:21:49.413Z,20.68
2018-05-18T04:24:15.220Z,20.63
2018-05-18T04:26:41.018Z,20.73
2018-05-18T04:29:06.813Z,20.69
2018-05-18T04:31:32.613Z,20.63
2018-05-18T04:33:59.273Z,20.64
2018-05-18T04:36:25.116Z,20.68
2018-05-18T04:38:50.913Z,20.74
2018-05-18T04:41:16.760Z,20.77
2018-05-18T04:43:43.549Z,20.72
2018-05-18T04:46:10.282Z,20.67
2018-05-18T04:48:36.088Z,20.77
2018-05-18T04:51:01.959Z,20.72
2018-05-18T04:53:27.774Z,20.80
2018-05-18T04:55:53.614Z,20.70
2018-05-18T04:58:19.460Z,20.79
2018-05-18T05:00:45.268Z,20.72
2018-05-18T05:03:11.080Z,20.64
2018-05-18T05:05:36.881Z,20.75
2018-05-18T05:08:02.712Z,20.73
2018-05-18T05:10:28.516Z,20.65
2018-05-18T05:12:54.375Z,20.68
2018-05-18T05:15:21.040Z,20.79
2018-05-18T05:17:46.958Z,20.77
2018-05-18T05:20:12.716Z,20.73
2018-05-18T05:22:38.545Z,20.68
2018-05-18T05:25:05.205Z,20.72
2018-05-18T05:27:31.001Z,20.72
2018-05-18T05:29:56.800Z,20.70
2018-05-18T05:32:23.528Z,20.78
2018-05-18T05:34:50.280Z,20.73
2018-05-18T05:37:17.060Z,20.72
2018-05-18T05:39:42.868Z,20.76
2018-05-18T05:42:09.589Z,20.73
2018-05-18T05:44:36.515Z,20.80
2018-05-18T05:47:03.148Z,20.75
2018-05-18T05:49:29.016Z,20.83
2018-05-18T05:51:55.661Z,20.79
2018-05-18T05:54:21.545Z,20.76
2018-05-18T05:56:47.386Z,20.76
2018-05-18T05:59:13.228Z,20.77
2018-05-18T06:01:39.031Z,20.79
2018-05-18T06:04:05.824Z,20.78
2018-05-18T06:06:32.633Z,20.87
2018-05-18T06:08:58.437Z,20.84
2018-05-18T06:11:25.217Z,20.93
2018-05-18T06:13:51.072Z,20.77
2018-05-18T06:16:16.872Z,20.76
2018-05-18T06:18:43.752Z,20.85
2018-05-18T06:21:10.384Z,20.71
2018-05-18T06:23:36.227Z,20.76
2018-05-18T06:26:02.139Z,20.83
2018-05-18T06:28:27.942Z,20.77
2018-05-18T06:30:53.748Z,20.81
2018-05-18T06:33:19.552Z,20.86
2018-05-18T06:35:45.467Z,21.05
2018-05-18T06:38:11.268Z,21.16
2018-05-18T06:40:37.226Z,21.25
2018-05-18T06:43:03.033Z,21.29
2018-05-18T06:45:29.398Z,21.35
2018-05-18T06:47:55.245Z,21.39
2018-05-18T06:50:21.080Z,21.43
2018-05-18T06:52:46.976Z,21.43
2018-05-18T06:55:12.816Z,21.46
2018-05-18T06:57:38.612Z,21.46
2018-05-18T07:00:04.408Z,21.41
2018-05-18T07:02:31.116Z,21.46
2018-05-18T07:04:56.952Z,21.49
2018-05-18T07:07:22.743Z,21.47
2018-05-18T07:09:48.596Z,21.49
2018-05-18T07:12:14.398Z,21.43
2018-05-18T07:14:40.283Z,21.46
2018-05-18T07:17:06.076Z,21.41
2018-05-18T07:19:31.876Z,21.45
2018-05-18T07:21:57.695Z,21.39
2018-05-18T07:24:23.492Z,21.43
2018-05-18T07:26:49.392Z,21.48
2018-05-18T07:29:15.196Z,21.46
2018-05-18T07:31:41.034Z,21.44
2018-05-18T07:34:06.837Z,21.45
2018-05-18T07:36:32.652Z,21.40
2018-05-18T07:38:58.456Z,21.47
2018-05-18T07:41:24.681Z,21.42
2018-05-18T07:43:50.507Z,21.36
2018-05-18T07:46:16.337Z,21.42
2018-05-18T07:48:42.145Z,21.44
2018-05-18T07:51:07.952Z,21.41
2018-05-18T07:53:33.765Z,21.47
2018-05-18T07:55:59.601Z,21.38
2018-05-18T07:58:25.449Z,21.43
2018-05-18T08:00:51.340Z,21.46
2018-05-18T08:03:17.140Z,21.43
2018-05-18T08:05:42.936Z,21.40
2018-05-18T08:08:08.740Z,21.38
2018-05-18T08:10:34.620Z,21.36
2018-05-18T08:13:01.457Z,21.37
2018-05-18T08:15:28.191Z,21.42
2018-05-18T08:17:54.071Z,21.38
2018-05-18T08:20:19.920Z,21.45
2018-05-18T08:22:45.720Z,21.45
2018-05-18T08:25:11.531Z,21.48
2018-05-18T08:27:38.362Z,21.51
2018-05-18T08:30:04.234Z,21.44
2018-05-18T08:32:30.912Z,21.43
2018-05-18T08:34:56.814Z,21.47
2018-05-18T08:37:22.613Z,21.42
2018-05-18T08:39:48.460Z,21.48
2018-05-18T08:42:14.259Z,21.45
2018-05-18T08:44:40.056Z,21.43
2018-05-18T08:47:05.898Z,21.45
2018-05-18T08:49:31.706Z,21.38
2018-05-18T08:51:57.560Z,21.45
2018-05-18T08:54:23.362Z,21.42
2018-05-18T08:56:49.196Z,21.41
2018-05-18T08:59:15.010Z,21.44
2018-05-18T09:01:40.811Z,21.41
2018-05-18T09:04:07.450Z,21.40
2018-05-18T09:06:33.246Z,21.43
2018-05-18T09:08:59.151Z,21.42
2018-05-18T09:11:24.933Z,21.43
2018-05-18T09:13:50.743Z,21.42
2018-05-18T09:16:16.554Z,21.42
2018-05-18T09:18:42.356Z,21.38
2018-05-18T09:21:08.161Z,21.39
2018-05-18T09:23:34.033Z,21.41
2018-05-18T09:25:59.888Z,21.42
2018-05-18T09:28:25.684Z,21.40
2018-05-18T09:30:51.493Z,21.36
2018-05-18T09:33:17.301Z,21.33
2018-05-18T09:35:43.100Z,21.38
2018-05-18T09:38:09.748Z,21.40
2018-05-18T09:40:35.588Z,21.37
2018-05-18T09:43:01.393Z,21.38
2018-05-18T09:45:27.198Z,21.38
2018-05-18T09:47:53.000Z,21.43
2018-05-18T09:50:19.678Z,21.39
2018-05-18T09:52:45.477Z,21.35
2018-05-18T09:55:11.451Z,21.37
2018-05-18T09:57:37.161Z,21.29
2018-05-18T10:00:02.969Z,21.35
2018-05-18T10:02:28.794Z,21.29
2018-05-18T10:04:54.748Z,21.35
2018-05-18T10:07:20.548Z,21.39
2018-05-18T10:09:46.344Z,21.33
2018-05-18T10:12:12.165Z,21.34
2018-05-18T10:14:37.971Z,21.40
2018-05-18T10:17:04.724Z,21.38
2018-05-18T10:19:31.389Z,21.35
2018-05-18T10:21:57.197Z,21.35
2018-05-18T10:24:23.002Z,21.37
2018-05-18T10:26:48.805Z,21.35
2018-05-18T10:29:14.609Z,21.34
2018-05-18T10:31:40.420Z,21.39
2018-05-18T10:34:06.217Z,21.39
2018-05-18T10:36:32.104Z,21.43
2018-05-18T10:38:57.899Z,21.39
2018-05-18T10:41:23.740Z,21.41
2018-05-18T10:43:49.592Z,21.42
2018-05-18T10:46:15.397Z,21.38
2018-05-18T10:48:41.209Z,21.41
2018-05-18T10:51:07.015Z,21.36
2018-05-18T10:53:32.841Z,21.43
2018-05-18T10:55:58.641Z,21.44
2018-05-18T10:58:24.447Z,21.43
2018-05-18T11:00:51.147Z,21.40
2018-05-18T11:03:16.988Z,21.41
2018-05-18T11:05:42.788Z,21.42
2018-05-18T11:08:08.738Z,21.43
2018-05-18T11:10:34.544Z,21.45
2018-05-18T11:13:00.340Z,21.42
2018-05-18T11:15:26.140Z,21.43
2018-05-18T11:17:51.941Z,21.45
2018-05-18T11:20:17.784Z,21.42
2018-05-18T11:22:43.639Z,21.43
2018-05-18T11:25:09.436Z,21.43
2018-05-18T11:27:35.261Z,21.45
2018-05-18T11:30:01.113Z,21.39
2018-05-18T11:32:27.052Z,21.38
2018-05-18T11:34:52.853Z,21.40
2018-05-18T11:37:18.653Z,21.39
2018-05-18T11:39:44.456Z,21.40
2018-05-18T11:42:10.368Z,21.39
2018-05-18T11:44:36.168Z,21.39
2018-05-18T11:47:02.024Z,21.40
2018-05-18T11:49:27.853Z,21.36
2018-05-18T11:51:53.818Z,21.37
2018-05-18T11:54:19.656Z,21.37
2018-05-18T11:56:45.459Z,21.42
2018-05-18T11:59:11.334Z,21.40
2018-05-18T12:01:37.954Z,21.37
2018-05-18T12:04:03.804Z,21.39
2018-05-18T12:06:29.755Z,21.39
2018-05-18T12:08:55.599Z,21.39
2018-05-18T12:11:22.387Z,21.40
2018-05-18T12:13:48.237Z,21.40
2018-05-18T12:16:14.040Z,21.40
2018-05-18T12:18:39.985Z,21.32
2018-05-18T12:21:05.784Z,21.35
2018-05-18T12:23:31.637Z,21.37
2018-05-18T12:25:57.482Z,21.38
2018-05-18T12:28:23.280Z,21.35
2018-05-18T12:30:49.282Z,21.35
2018-05-18T12:33:15.136Z,21.37
2018-05-18T12:35:40.938Z,21.34
2018-05-18T12:38:06.801Z,21.34
2018-05-18T12:40:32.711Z,21.37
2018-05-18T12:42:59.605Z,21.35
2018-05-18T12:45:26.230Z,21.36
2018-05-18T12:47:52.072Z,21.34
2018-05-18T12:50:17.956Z,21.32
2018-05-18T12:52:43.758Z,21.35
2018-05-18T12:55:09.588Z,21.34
2018-05-18T12:57:35.436Z,21.35
2018-05-18T13:00:01.242Z,21.33
2018-05-18T13:02:27.063Z,21.32
2018-05-18T13:04:52.916Z,21.33
2018-05-18T13:07:18.712Z,21.30
2018-05-18T13:09:44.509Z,21.32
2018-05-18T13:12:10.336Z,21.28
2018-05-18T13:14:36.140Z,21.27
2018-05-18T13:17:01.936Z,21.34
2018-05-18T13:19:27.832Z,21.35
2018-05-18T13:21:53.633Z,21.40
2018-05-18T13:24:19.468Z,21.35
2018-05-18T13:26:45.267Z,21.31
2018-05-18T13:29:11.061Z,21.32
2018-05-18T13:31:36.869Z,21.33
2018-05-18T13:34:02.685Z,21.36
2018-05-18T13:36:28.501Z,21.35
2018-05-18T13:38:54.381Z,21.31
2018-05-18T13:41:21.085Z,21.36
2018-05-18T13:43:46.884Z,21.34
2018-05-18T13:46:12.779Z,21.33
2018-05-18T13:48:38.583Z,21.31
2018-05-18T13:51:04.379Z,21.31
2018-05-18T13:53:30.184Z,21.31
2018-05-18T13:55:55.988Z,21.32
2018-05-18T13:58:21.793Z,21.26
2018-05-18T14:00:47.695Z,21.29
2018-05-18T14:03:13.613Z,21.31
2018-05-18T14:05:39.536Z,21.26
2018-05-18T14:08:05.334Z,21.32
2018-05-18T14:10:31.135Z,21.28
2018-05-18T14:12:56.976Z,21.28
2018-05-18T14:15:22.778Z,21.27
2018-05-18T14:17:48.645Z,21.27
2018-05-18T14:20:14.488Z,21.27
2018-05-18T14:22:41.224Z,21.28
2018-05-18T14:25:07.069Z,21.26
2018-05-18T14:27:32.868Z,21.30
2018-05-18T14:29:58.672Z,21.27
2018-05-18T14:32:24.472Z,21.21
2018-05-18T14:34:50.301Z,21.22
2018-05-18T14:37:16.105Z,21.26
2018-05-18T14:39:41.912Z,21.22
2018-05-18T14:42:07.778Z,21.23
2018-05-18T14:44:33.581Z,21.23
2018-05-18T14:46:59.471Z,21.21
2018-05-18T14:49:25.312Z,21.22
2018-05-18T14:51:51.112Z,21.26
2018-05-18T14:54:16.920Z,21.24
2018-05-18T14:56:42.729Z,21.20
2018-05-18T14:59:08.529Z,21.21
2018-05-18T15:01:34.333Z,21.19
2018-05-18T15:04:00.131Z,21.19
2018-05-18T15:06:26.161Z,21.20
2018-05-18T15:08:51.955Z,21.21
2018-05-18T15:11:17.753Z,21.20
2018-05-18T15:13:43.552Z,21.22
2018-05-18T15:16:09.349Z,21.19
2018-05-18T15:18:35.152Z,21.20
2018-05-18T15:21:00.954Z,21.21
2018-05-18T15:23:26.880Z,21.17
2018-05-18T15:25:52.692Z,21.22
2018-05-18T15:28:18.490Z,21.22
2018-05-18T15:30:44.332Z,21.27
2018-05-18T15:33:10.173Z,21.21
2018-05-18T15:35:36.916Z,21.21
2018-05-18T15:38:02.752Z,21.21
2018-05-18T15:40:28.553Z,21.18
2018-05-18T15:42:54.351Z,21.22
2018-05-18T15:45:20.147Z,21.21
2018-05-18T15:47:45.982Z,21.24
2018-05-18T15:50:11.836Z,21.22
2018-05-18T15:52:37.633Z,21.10
2018-05-18T15:55:03.428Z,21.18
2018-05-18T15:57:29.296Z,21.11
2018-05-18T15:59:55.107Z,21.14
2018-05-18T16:02:20.906Z,21.14
2018-05-18T16:04:46.710Z,21.16
2018-05-18T16:07:12.511Z,21.11
2018-05-18T16:09:38.308Z,21.14
2018-05-18T16:12:04.108Z,21.12
2018-05-18T16:14:29.904Z,21.14
2018-05-18T16:16:55.742Z,21.16
2018-05-18T16:19:21.579Z,21.16
2018-05-18T16:21:47.490Z,21.16
2018-05-18T16:24:13.292Z,21.12
2018-05-18T16:26:39.090Z,21.14
2018-05-18T16:29:04.888Z,21.15
2018-05-18T16:31:30.689Z,21.15
2018-05-18T16:33:56.532Z,21.13
2018-05-18T16:36:22.340Z,21.13
2018-05-18T16:38:48.145Z,21.16
2018-05-18T16:41:13.945Z,21.18
2018-05-18T16:43:39.744Z,21.09
2018-05-18T16:46:05.544Z,21.19
2018-05-18T16:48:31.347Z,21.12
2018-05-18T16:50:58.053Z,21.16
2018-05-18T16:53:24.795Z,21.12
2018-05-18T16:55:51.539Z,21.11
2018-05-18T16:58:17.376Z,21.13
2018-05-18T17:00:44.113Z,21.12
2018-05-18T17:03:10.784Z,21.11
2018-05-18T17:05:36.584Z,21.16
2018-05-18T17:08:03.421Z,21.19
2018-05-18T17:10:30.033Z,21.07
2018-05-18T17:12:55.995Z,21.12
2018-05-18T17:15:22.648Z,21.08
2018-05-18T17:17:57.194Z,21.14
2018-05-18T17:20:24.001Z,21.06
2018-05-18T17:22:49.800Z,21.07
2018-05-18T17:25:16.756Z,21.11
2018-05-18T17:27:42.601Z,21.09
2018-05-18T17:30:08.450Z,21.08
2018-05-18T17:32:34.253Z,21.08
2018-05-18T17:35:00.105Z,21.08
2018-05-18T17:37:25.905Z,21.05
2018-05-18T17:39:51.696Z,21.00
2018-05-18T17:42:18.537Z,21.01
2018-05-18T17:44:44.328Z,21.01
2018-05-18T17:47:10.129Z,20.91
2018-05-18T17:49:36.912Z,20.86
2018-05-18T17:52:02.721Z,20.73
2018-05-18T17:54:28.591Z,20.72
2018-05-18T17:56:54.410Z,20.62
2018-05-18T17:59:20.217Z,20.75
2018-05-18T18:01:46.020Z,20.83
2018-05-18T18:04:12.829Z,20.76
2018-05-18T18:06:38.662Z,20.86
2018-05-18T18:09:05.311Z,20.90
2018-05-18T18:11:31.113Z,20.90
2018-05-18T18:13:57.897Z,20.93
2018-05-18T18:16:23.704Z,20.80
2018-05-18T18:18:50.346Z,20.74
2018-05-18T18:21:16.157Z,20.70
2018-05-18T18:23:41.959Z,20.83
2018-05-18T18:26:08.576Z,20.84
2018-05-18T18:28:34.455Z,20.78
2018-05-18T18:31:01.289Z,20.83
2018-05-18T18:33:28.028Z,20.84
2018-05-18T18:35:54.006Z,20.81
2018-05-18T18:38:20.773Z,20.77
2018-05-18T18:40:47.625Z,20.71
2018-05-18T18:43:13.466Z,20.59
2018-05-18T18:45:40.204Z,20.71
2018-05-18T18:48:06.825Z,20.62
2018-05-18T18:50:32.660Z,20.74
2018-05-18T18:52:58.513Z,20.61
2018-05-18T18:55:28.566Z,20.73
2018-05-18T18:57:55.093Z,20.65
2018-05-18T19:00:20.976Z,20.63
2018-05-18T19:02:49.453Z,20.63
2018-05-18T19:05:15.329Z,20.54
2018-05-18T19:07:41.141Z,20.50
2018-05-18T19:10:07.061Z,20.57
2018-05-18T19:12:32.989Z,20.62
2018-05-18T19:14:58.904Z,20.60
2018-05-18T19:17:24.864Z,20.53
2018-05-18T19:19:50.774Z,20.58
2018-05-18T19:22:16.677Z,20.63
2018-05-18T19:24:42.553Z,20.57
2018-05-18T19:27:08.732Z,20.57
2018-05-18T19:29:35.405Z,20.62
2018-05-18T19:32:01.378Z,20.58
2018-05-18T19:34:27.275Z,20.52
2018-05-18T19:36:54.061Z,20.58
2018-05-18T19:39:20.699Z,20.58
2018-05-18T19:41:46.521Z,20.58
2018-05-18T19:44:12.330Z,20.57
2018-05-18T19:46:38.145Z,20.65
2018-05-18T19:49:03.954Z,20.60
2018-05-18T19:51:29.757Z,20.57
2018-05-18T19:53:55.655Z,20.63
2018-05-18T19:56:21.501Z,20.63
2018-05-18T19:58:47.300Z,20.61
2018-05-18T20:01:13.983Z,20.60
2018-05-18T20:03:39.803Z,20.64
2018-05-18T20:06:05.637Z,20.60
2018-05-18T20:08:31.482Z,20.52
2018-05-18T20:10:58.275Z,20.54
2018-05-18T20:13:24.120Z,20.51
2018-05-18T20:15:50.765Z,20.50
2018-05-18T20:18:16.608Z,20.48
2018-05-18T20:20:42.449Z,20.64
2018-05-18T20:23:08.296Z,20.55
2018-05-18T20:25:34.105Z,20.51
2018-05-18T20:27:59.912Z,20.55
2018-05-18T20:30:26.532Z,20.36
2018-05-18T20:32:53.347Z,20.57
2018-05-18T20:35:20.092Z,20.50
2018-05-18T20:37:45.897Z,20.46
2018-05-18T20:40:11.708Z,20.57
2018-05-18T20:42:37.551Z,20.49
2018-05-18T20:45:03.396Z,20.52
2018-05-18T20:47:29.203Z,20.63
2018-05-18T20:49:55.056Z,20.56
2018-05-18T20:52:21.708Z,20.41
2018-05-18T20:54:48.476Z,20.34
2018-05-18T20:57:14.284Z,20.41
2018-05-18T20:59:40.143Z,20.41
2018-05-18T21:02:06.788Z,20.36
2018-05-18T21:04:33.528Z,20.41
2018-05-18T21:07:00.407Z,20.49
2018-05-18T21:09:26.252Z,20.42
2018-05-18T21:11:53.048Z,20.51
2018-05-18T21:14:18.940Z,20.46
2018-05-18T21:16:44.743Z,20.52
2018-05-18T21:19:11.481Z,20.42
2018-05-18T21:21:38.280Z,20.40
2018-05-18T21:24:05.028Z,20.45
2018-05-18T21:26:30.842Z,20.38
2018-05-18T21:28:56.694Z,20.43
2018-05-18T21:31:22.553Z,20.50
2018-05-18T21:33:49.176Z,20.43
2018-05-18T21:36:14.984Z,20.53
2018-05-18T21:38:40.798Z,20.56
2018-05-18T21:41:06.660Z,20.54
2018-05-18T21:43:32.475Z,20.59
2018-05-18T21:45:59.317Z,20.63
2018-05-18T21:48:26.052Z,20.56
2018-05-18T21:50:52.821Z,20.62
2018-05-18T21:53:18.624Z,20.64
2018-05-18T21:55:44.565Z,20.57
2018-05-18T21:58:11.320Z,20.60
2018-05-18T22:00:38.021Z,20.62
2018-05-18T22:03:03.832Z,20.62
2018-05-18T22:05:29.625Z,20.58
2018-05-18T22:07:55.449Z,20.56
2018-05-18T22:10:22.132Z,20.60
2018-05-18T22:12:48.848Z,20.58
2018-05-18T22:15:14.651Z,20.67
2018-05-18T22:17:40.459Z,20.69
2018-05-18T22:20:07.236Z,20.72
2018-05-18T22:22:33.089Z,20.85
2018-05-18T22:24:58.903Z,21.06
2018-05-18T22:27:24.711Z,21.13
2018-05-18T22:29:50.596Z,21.15
2018-05-18T22:32:16.516Z,21.27
2018-05-18T22:34:43.153Z,21.25
2018-05-18T22:37:08.953Z,21.28
2018-05-18T22:39:34.753Z,21.32
2018-05-18T22:42:00.562Z,21.32
2018-05-18T22:44:26.405Z,21.25
2018-05-18T22:46:53.057Z,21.28
2018-05-18T22:49:18.901Z,21.26
2018-05-18T22:51:45.512Z,21.31
2018-05-18T22:54:11.316Z,21.33
2018-05-18T22:56:37.116Z,21.28
2018-05-18T22:59:02.928Z,21.30
2018-05-18T23:01:28.730Z,21.28
2018-05-18T23:03:54.526Z,21.26
2018-05-18T23:06:20.364Z,21.30
2018-05-18T23:08:46.171Z,21.27
2018-05-18T23:11:11.967Z,21.29
2018-05-18T23:13:37.817Z,21.26
2018-05-18T23:16:03.631Z,21.26
2018-05-18T23:18:29.428Z,21.18
2018-05-18T23:20:55.220Z,21.21
2018-05-18T23:23:21.016Z,21.19
2018-05-18T23:25:46.907Z,21.23
2018-05-18T23:28:12.700Z,21.17
2018-05-18T23:30:38.680Z,21.12
2018-05-18T23:33:04.480Z,21.20
2018-05-18T23:35:31.251Z,21.15
2018-05-18T23:37:58.020Z,21.12
2018-05-18T23:40:24.793Z,21.13
2018-05-18T23:42:50.631Z,21.20
2018-05-18T23:45:16.655Z,21.13
2018-05-18T23:47:43.425Z,21.13
2018-05-18T23:50:09.233Z,21.18
2018-05-18T23:52:35.083Z,21.09
2018-05-18T23:55:00.876Z,21.08
2018-05-18T23:57:27.678Z,21.12
2018-05-18T23:59:53.477Z,21.07
